Ana Sayfa
METAR-TAF:

METAR-TAF

Havaalanları :

Nakhon Ratchasima, Tayland

Enlem: 14-56-58N, Boylam: 102-18-45E, yükseklik: 233 m

Güncel hava durumu gözlemi

Rapor saat 08:00 UTC de 1 saat ve 5 dakika önce yapıldı.
Rüzgar güney/güneybatıdan 9 kt
Sıcaklık 24°C
Nem 94%
Basınç 1011 hPa
Görüş mesafesi: 9000 m
2500 ft yükseklikte parçalı çok bulutlu
10000 ft yükseklikte parçalı çok bulutlu
Civarda sağanaklar

METAR: VTUQ 250800Z 21009KT 9000 VCSH BKN025 BKN100 24/23 Q1011 RETS NOSIG

Saat: 16:05 (09:05 UTC)

Tahmin

Rapor saat 05:00 UTC de 4 saat ve 5 dakika önce yapıldı.
Ayın 25'si saat 06 UTC'den ayın 26'si saat 06 UTC'ye kadar geçerli Tahmin
Rüzgar güney/güneybatıdan 8 kt
Görüş mesafesi: 9000 m
3000 ft yükseklikte parçalı bulutlu

TAF: VTUQ 250500Z 2506/2606 21008KT 9000 SCT030

4.000'den fazla havaalanı için hava durumu gözlemleri ve tahminleri (METAR ve TAF raporları).

Kullanılabilir istasyonlar harita üzerinde sarı ve kırmızı noktalarla gösterilir.

İstasyonun adını görmek için fareyi noktanın üzerinde gezdirin.

Sonrasında hava gözlem ve tahminlerini görmek için tıklayın.

Haritayı değiştirmek için: yaklaştırmak için siyah artı işaretli yeşil düğmeye ve uzaklaştırmak için de eksi işaretli düğmeye hızla tıklayın; bitişik haritalar için yeşil okları kullanın.


METAR-TAF: